Hillsdale, Pennsylvania
Current Conditions -  °F | °C
As of 8:55 AM on Thursday 23 Oct 2014 (Local Time) from KIDI Reporting Station
Overcast Overcast  
Wind Chill: 43°   Ceiling: 2000
Heat Index: 46°   Visibility: 10mi
Dew Point: 41°   Wind: 7mph
Humidity: 81%   Direction: 320°NW
Pressure: 30.12"   Gusts: 15mph
Location:  40.75°N, 78.88°W
Report Text: KIDI 231255Z AUTO 32006G13KT 10SM OVC020 08/05 A3012 RMK A01
Loading
Personal Weather Stations






























Interactive Weather Map
Tropical Storm Tracking
New forecast layout! Learn more

10-Day Weather Forecast

Advertisements
Track Severe Weather on mobile